KEFD/EFD METAR and TAF weather

Enter ICAO airport designator
Station Type Date Time Source
KEFD METAR 2021/05/14 21:50 UTC NOAA

KEFD 142150Z 10012KT 10SM BKN060 26/15 A3014


Station Type Date Time Source
KEFD Decoded METAR 2021/05/14 21:50 UTC NOAA

Houston / Ellington, TX, United States (KEFD) 29-36N 095-10W
May 14, 2021 - 05:50 PM EDT / 2021.05.14 2150 UTC
Wind: from the E (100 degrees) at 14 MPH (12 KT):0
Visibility: 10 mile(s):0
Sky conditions: mostly cloudy
Temperature: 78 F (26 C)
Dew Point: 59 F (15 C)
Relative Humidity: 50%
Pressure (altimeter): 30.14 in. Hg (1020 hPa)
ob: KEFD 142150Z 10012KT 10SM BKN060 26/15 A3014
cycle: 22

Station Type Date Time Source
KEFD TAF 2021/05/14 20:23 UTC NOAA

TAF KEFD 142000Z 1420/1602 VRB06KT 9999 FEW025 FEW040 QNH3009INS
BECMG 1505/1506 VRB06KT 9000 BR BKN025 QNH3008INS
BECMG 1515/1516 14010G15KT 9999 NSW BKN030 QNH2998INS TX26/1421Z TN18/1507Z

Example: see airport list